Time;durP1;ratioP1;P1;durP2;ratioP2;P2;SDS_P1;SDS_P2;PMS_P1;PMS_P2;Temp;Humidity;BMP_temperature;BMP_pressure;BME280_temperature;BME280_humidity;BME280_pressure;Samples;Min_cycle;Max_cycle;Signal;HPM_P1;HPM_P2
2023/04/14 00:00:35;;;;;;;6.85;3.63;;;;;;;4.26;85.77;100879.75;6130137;23;20019;-77
2023/04/14 00:03:01;;;;;;;6.53;3.22;;;;;;;4.24;85.59;100876.75;6129224;23;20104;-77
2023/04/14 00:05:29;;;;;;;8.48;3.33;;;;;;;4.21;85.66;100886.19;6104096;23;20456;-77
2023/04/14 00:07:56;;;;;;;6.72;3.45;;;;;;;4.16;86.04;100888.50;6102900;23;20556;-74
2023/04/14 00:10:23;;;;;;;9.07;2.92;;;;;;;4.08;85.97;100884.44;6129876;23;20018;-76
2023/04/14 00:12:50;;;;;;;4.68;2.95;;;;;;;4.07;86.12;100881.06;6129935;23;20025;-77
2023/04/14 00:15:17;;;;;;;8.95;3.22;;;;;;;4.03;86.32;100890.88;6129260;23;20476;-74
2023/04/14 00:17:44;;;;;;;8.02;3.92;;;;;;;4.00;86.20;100884.50;6129732;23;20018;-77
2023/04/14 00:20:11;;;;;;;7.93;4.18;;;;;;;3.96;86.54;100891.72;6129188;23;20098;-76
2023/04/14 00:22:37;;;;;;;8.70;4.53;;;;;;;3.92;86.76;100892.88;6129195;23;20041;-76
2023/04/14 00:25:04;;;;;;;11.85;4.53;;;;;;;3.91;86.32;100894.00;6102641;23;20428;-76
2023/04/14 00:27:31;;;;;;;6.35;3.72;;;;;;;3.89;86.59;100904.19;6103176;23;20014;-76
2023/04/14 00:29:57;;;;;;;5.97;3.33;;;;;;;3.86;86.63;100900.44;6129282;23;20018;-76
2023/04/14 00:32:24;;;;;;;4.45;3.00;;;;;;;3.80;86.38;100896.72;6129741;23;20436;-76
2023/04/14 00:34:50;;;;;;;8.93;2.92;;;;;;;3.75;86.70;100899.78;6103966;23;20062;-75
2023/04/14 00:37:17;;;;;;;6.13;3.10;;;;;;;3.76;87.03;100898.66;6128538;23;20051;-76
2023/04/14 00:39:44;;;;;;;8.05;2.63;;;;;;;3.74;87.07;100898.28;6129636;23;20412;-75
2023/04/14 00:42:11;;;;;;;6.63;3.38;;;;;;;3.71;86.81;100896.44;6129021;23;20445;-76
2023/04/14 00:44:37;;;;;;;5.40;3.22;;;;;;;3.64;87.18;100889.31;6103660;23;20023;-76
2023/04/14 00:47:04;;;;;;;4.22;3.08;;;;;;;3.63;86.46;100903.63;6128967;23;20025;-76
2023/04/14 00:49:31;;;;;;;4.40;2.88;;;;;;;3.61;87.25;100895.34;6103385;23;20050;-75
2023/04/14 00:51:58;;;;;;;5.00;2.63;;;;;;;3.59;87.52;100900.28;6128535;23;20081;-76
2023/04/14 00:54:26;;;;;;;9.70;3.08;;;;;;;3.55;87.54;100902.19;6103065;23;20030;-76
2023/04/14 00:56:54;;;;;;;5.45;2.45;;;;;;;3.50;88.02;100907.88;6098078;23;20027;-76
2023/04/14 00:59:21;;;;;;;7.30;3.30;;;;;;;3.48;87.85;100907.50;6100067;23;20523;-76
2023/04/14 01:01:47;;;;;;;4.80;2.40;;;;;;;3.46;88.54;100916.91;6098768;23;20019;-76
2023/04/14 01:04:19;;;;;;;2.92;2.15;;;;;;;3.42;87.93;100916.19;6099386;23;20535;-76
2023/04/14 01:06:45;;;;;;;4.85;2.00;;;;;;;3.38;88.09;100910.94;6098227;23;20019;-76
2023/04/14 01:09:14;;;;;;;3.08;2.40;;;;;;;3.33;87.85;100917.38;6099736;23;20019;-76
2023/04/14 01:11:47;;;;;;;2.03;1.88;;;;;;;3.31;87.97;100905.72;6098259;23;20438;-75
2023/04/14 01:14:23;;;;;;;3.17;2.30;;;;;;;3.20;87.16;100911.03;6098086;23;20014;-75
2023/04/14 01:16:54;;;;;;;6.45;2.88;;;;;;;3.18;88.14;100915.22;6100248;23;20479;-75
2023/04/14 01:19:23;;;;;;;4.75;2.53;;;;;;;3.19;87.92;100920.09;6100021;23;20048;-76
2023/04/14 01:21:56;;;;;;;4.05;2.38;;;;;;;3.11;87.83;100915.25;6100068;23;20019;-76
2023/04/14 01:24:50;;;;;;;5.25;2.92;;;;;;;3.09;87.59;100912.25;6098213;23;20050;-76
2023/04/14 01:27:39;;;;;;;5.55;3.00;;;;;;;3.11;87.92;100917.88;6098149;23;20504;-75
2023/04/14 01:30:40;;;;;;;4.03;2.75;;;;;;;3.08;88.17;100916.00;6099424;23;20018;-75
2023/04/14 01:33:14;;;;;;;2.27;1.90;;;;;;;3.06;88.57;100926.16;6097776;23;20023;-75
2023/04/14 01:35:49;;;;;;;6.95;2.40;;;;;;;2.96;88.46;100925.81;6097852;23;20027;-76
2023/04/14 01:38:24;;;;;;;5.63;3.03;;;;;;;2.95;88.61;100924.31;6100115;23;20525;-76
2023/04/14 01:40:56;;;;;;;4.97;2.95;;;;;;;2.96;89.24;100920.56;6075935;23;20029;-76
2023/04/14 01:43:29;;;;;;;3.38;2.95;;;;;;;2.96;89.27;100912.66;6099642;23;20019;-75
2023/04/14 01:45:59;;;;;;;4.95;2.88;;;;;;;2.94;89.02;100917.56;6099163;23;20050;-75
2023/04/14 01:48:27;;;;;;;5.85;2.88;;;;;;;2.88;89.51;100921.72;6099018;23;20019;-75
2023/04/14 01:50:55;;;;;;;3.42;3.13;;;;;;;2.87;89.36;100919.47;6099535;23;20022;-75
2023/04/14 01:53:26;;;;;;;6.97;3.30;;;;;;;2.81;89.79;100921.75;6099214;23;20109;-75
2023/04/14 01:55:54;;;;;;;6.30;3.15;;;;;;;2.79;89.79;100924.03;6099261;23;20026;-75
2023/04/14 01:58:22;;;;;;;4.22;3.05;;;;;;;2.74;90.17;100931.56;6127453;23;20090;-75
2023/04/14 02:00:51;;;;;;;3.20;2.90;;;;;;;2.75;90.15;100928.53;6080469;23;20082;-75
2023/04/14 02:03:20;;;;;;;3.33;2.60;;;;;;;2.70;90.29;100936.81;6129184;23;20021;-75
2023/04/14 02:05:50;;;;;;;3.65;2.65;;;;;;;2.67;90.28;100943.59;6130459;23;20077;-75
2023/04/14 02:08:19;;;;;;;9.88;2.50;;;;;;;2.62;90.61;100941.34;6103599;23;20471;-75
2023/04/14 02:10:47;;;;;;;4.07;2.97;;;;;;;2.59;90.45;100936.84;6103993;23;20023;-75
2023/04/14 02:13:18;;;;;;;3.88;2.55;;;;;;;2.57;90.65;100941.72;6103265;23;20022;-75
2023/04/14 02:15:47;;;;;;;5.18;2.75;;;;;;;2.58;90.76;100945.84;6104433;23;20026;-75
2023/04/14 02:18:15;;;;;;;3.92;2.58;;;;;;;2.56;90.94;100939.47;6129074;23;20022;-75
2023/04/14 02:20:45;;;;;;;5.03;2.95;;;;;;;2.53;90.94;100942.84;6104222;23;20064;-75
2023/04/14 02:23:13;;;;;;;4.85;2.70;;;;;;;2.50;90.42;100940.97;6129725;23;20015;-75
2023/04/14 02:25:55;;;;;;;4.82;2.80;;;;;;;2.46;90.85;100940.25;6103997;23;20022;-75
2023/04/14 02:28:23;;;;;;;;;;;;;;;2.46;90.47;100938.38;6130878;23;20022;-75
2023/04/14 02:30:53;;;;;;;4.85;2.95;;;;;;;2.43;90.80;100939.13;6130584;23;19921;-75
2023/04/14 02:33:21;;;;;;;2.88;2.60;;;;;;;2.44;90.96;100937.25;6102448;23;20029;-75
2023/04/14 02:35:55;;;;;;;4.43;3.03;;;;;;;2.40;90.48;100945.13;6130239;23;20022;-74
2023/04/14 02:38:31;;;;;;;4.22;2.95;;;;;;;2.36;90.16;100943.66;6104022;23;20029;-75
2023/04/14 02:41:03;;;;;;;4.32;2.83;;;;;;;2.28;90.79;100946.28;6129570;23;20014;-75
2023/04/14 02:43:32;;;;;;;7.07;3.28;;;;;;;2.26;91.01;100945.91;6104484;23;20015;-75
2023/04/14 02:46:03;;;;;;;7.40;3.33;;;;;;;2.28;91.14;100951.53;6103223;23;20065;-74
2023/04/14 02:48:33;;;;;;;5.40;3.30;;;;;;;2.26;91.14;100948.53;6102857;23;20019;-75
2023/04/14 02:51:02;;;;;;;5.45;3.85;;;;;;;2.22;90.51;100947.78;6103382;23;20022;-74
2023/04/14 02:53:30;;;;;;;6.10;3.33;;;;;;;2.19;90.34;100945.91;6079832;23;20018;-76
2023/04/14 02:56:06;;;;;;;5.40;4.18;;;;;;;2.16;91.03;100951.91;6103178;23;20109;-76
2023/04/14 02:58:36;;;;;;;9.05;4.38;;;;;;;2.20;91.88;100955.28;6103648;23;20022;-76
2023/04/14 03:01:04;;;;;;;4.78;3.70;;;;;;;2.20;91.85;100962.44;6102672;23;20058;-77
2023/04/14 03:03:36;;;;;;;7.35;4.45;;;;;;;2.20;92.26;100965.06;6103574;23;20018;-77
2023/04/14 03:06:05;;;;;;;5.85;4.50;;;;;;;2.22;92.66;100962.81;6103113;23;20027;-77
2023/04/14 03:08:33;;;;;;;7.55;4.30;;;;;;;2.20;92.87;100959.81;6103866;23;20024;-76
2023/04/14 03:11:01;;;;;;;9.85;4.97;;;;;;;2.17;92.32;100960.56;6103401;23;20156;-77
2023/04/14 03:13:32;;;;;;;9.13;4.80;;;;;;;2.16;92.94;100964.31;6079930;23;20018;-77
2023/04/14 03:15:59;;;;;;;12.50;4.75;;;;;;;2.15;92.97;100963.56;6102424;23;20037;-77
2023/04/14 03:18:30;;;;;;;5.25;4.22;;;;;;;2.16;93.25;100972.19;6079647;23;20026;-77
2023/04/14 03:20:59;;;;;;;6.57;4.18;;;;;;;2.16;93.71;100959.81;6103068;23;20022;-77
2023/04/14 03:23:26;;;;;;;6.65;3.90;;;;;;;2.12;93.29;100964.31;6103660;23;20023;-76
2023/04/14 03:26:00;;;;;;;7.32;4.45;;;;;;;2.10;93.75;100968.44;6129438;23;20029;-77
2023/04/14 03:28:29;;;;;;;7.22;4.20;;;;;;;2.08;93.65;100974.06;6103755;23;20101;-74
2023/04/14 03:31:00;;;;;;;7.55;4.13;;;;;;;2.02;93.45;100970.28;6128791;23;20019;-76
2023/04/14 03:33:32;;;;;;;7.43;4.07;;;;;;;2.00;93.57;100975.16;6104087;23;20038;-77
2023/04/14 03:36:00;;;;;;;6.18;4.70;;;;;;;1.99;93.82;100969.19;6103060;23;20456;-76
2023/04/14 03:38:28;;;;;;;8.35;4.28;;;;;;;1.97;93.56;100975.94;6103724;23;20050;-76
2023/04/14 03:40:58;;;;;;;4.45;4.00;;;;;;;1.94;93.23;100969.56;6103077;23;20117;-77
2023/04/14 03:43:27;;;;;;;6.47;4.30;;;;;;;1.94;93.42;100969.56;6103996;23;20029;-76
2023/04/14 03:46:06;;;;;;;8.32;4.15;;;;;;;1.93;93.14;100972.56;6103017;23;20034;-76
2023/04/14 03:48:41;;;;;;;8.90;4.07;;;;;;;1.91;93.16;100966.94;6103697;23;20457;-77
2023/04/14 03:51:12;;;;;;;5.07;4.03;;;;;;;1.87;93.08;100974.06;6103128;23;20027;-77
2023/04/14 03:53:42;;;;;;;9.80;4.88;;;;;;;1.80;92.91;100979.28;6103413;23;20075;-77
2023/04/14 03:56:12;;;;;;;9.27;4.13;;;;;;;1.80;93.82;100979.28;6102941;23;20035;-76
2023/04/14 03:58:42;;;;;;;9.20;4.78;;;;;;;1.80;93.69;100974.03;6098831;23;20027;-77
2023/04/14 04:01:10;;;;;;;6.85;4.55;;;;;;;1.79;93.77;100977.78;6097917;23;20019;-76
2023/04/14 04:03:38;;;;;;;5.15;4.70;;;;;;;1.81;93.68;100972.91;6075090;23;20078;-77
2023/04/14 04:06:06;;;;;;;5.55;4.50;;;;;;;1.78;93.99;100971.03;6099959;23;20078;-76
2023/04/14 04:08:35;;;;;;;6.68;4.20;;;;;;;1.78;93.94;100974.41;6098779;23;20074;-77
2023/04/14 04:11:05;;;;;;;6.72;3.78;;;;;;;1.71;93.62;100971.03;6074187;23;20183;-76
2023/04/14 04:13:34;;;;;;;5.85;4.30;;;;;;;1.67;94.13;100977.00;6098544;23;20019;-76
2023/04/14 04:16:04;;;;;;;6.75;3.88;;;;;;;1.64;93.93;100971.75;6097983;23;20509;-76
2023/04/14 04:18:30;;;;;;;5.28;3.97;;;;;;;1.63;94.38;100978.13;6100568;23;20068;-75
2023/04/14 04:20:58;;;;;;;6.28;4.28;;;;;;;1.65;94.75;100981.88;6099937;23;20353;-76
2023/04/14 04:23:31;;;;;;;5.28;4.13;;;;;;;1.64;94.34;100982.25;6098707;23;20154;-75
2023/04/14 04:25:58;;;;;;;7.30;4.28;;;;;;;1.61;94.58;100980.38;6099886;23;20453;-76
2023/04/14 04:28:37;;;;;;;4.25;3.42;;;;;;;1.59;94.52;100980.78;6098145;23;20026;-76
2023/04/14 04:31:05;;;;;;;4.85;4.25;;;;;;;1.58;94.25;100983.75;6098023;23;20099;-74
2023/04/14 04:33:33;;;;;;;7.50;4.18;;;;;;;1.56;94.07;100992.00;6098601;23;20019;-75
2023/04/14 04:36:00;;;;;;;7.18;4.38;;;;;;;1.56;94.28;100996.50;6097763;23;20027;-75
2023/04/14 04:38:33;;;;;;;6.35;4.47;;;;;;;1.58;94.60;101002.13;6098865;23;20078;-74
2023/04/14 04:41:00;;;;;;;7.85;4.53;;;;;;;1.56;94.61;100997.25;6097926;23;20814;-74
2023/04/14 04:43:28;;;;;;;5.40;4.35;;;;;;;1.57;95.01;100998.00;6097855;23;20023;-75
2023/04/14 04:46:23;;;;;;;7.53;5.05;;;;;;;1.57;94.69;101009.25;6098043;23;20023;-74
2023/04/14 04:48:52;;;;;;;9.40;5.40;;;;;;;1.55;94.77;101005.50;6098482;23;20051;-75
2023/04/14 04:51:19;;;;;;;7.20;4.93;;;;;;;1.58;94.91;101005.50;6097589;23;20015;-75
2023/04/14 04:53:46;;;;;;;7.43;5.68;;;;;;;1.63;95.35;101005.13;6098368;23;20019;-75
2023/04/14 04:56:12;;;;;;;10.15;5.45;;;;;;;1.66;95.59;101008.88;6099635;23;20468;-75
2023/04/14 04:58:39;;;;;;;7.03;5.40;;;;;;;1.68;95.37;101007.38;6126238;23;20093;-77
2023/04/14 05:01:09;;;;;;;7.38;4.97;;;;;;;1.70;95.25;101009.63;6128995;23;20086;-75
2023/04/14 05:03:36;;;;;;;9.43;4.55;;;;;;;1.70;96.04;101004.38;6129733;23;20460;-77
2023/04/14 05:06:03;;;;;;;5.72;4.82;;;;;;;1.76;95.90;101010.03;6128897;23;20520;-77
2023/04/14 05:08:29;;;;;;;5.38;4.55;;;;;;;1.81;95.79;101007.03;6129733;23;20074;-77
2023/04/14 05:10:56;;;;;;;3.80;3.50;;;;;;;1.83;96.01;101010.81;6128921;23;20015;-77
2023/04/14 05:13:22;;;;;;;5.75;4.20;;;;;;;1.84;95.67;101004.44;6128585;23;20046;-77
2023/04/14 05:15:49;;;;;;;5.57;4.28;;;;;;;1.86;95.55;101007.44;6103482;23;20025;-76
2023/04/14 05:18:15;;;;;;;6.68;4.53;;;;;;;1.88;95.24;100999.94;6128844;23;20014;-77
2023/04/14 05:20:42;;;;;;;5.07;4.43;;;;;;;1.92;95.43;101005.94;6103452;23;20028;-77
2023/04/14 05:23:08;;;;;;;8.10;4.50;;;;;;;1.98;95.45;101006.34;6128614;23;20451;-77
2023/04/14 05:25:35;;;;;;;7.82;4.43;;;;;;;2.01;95.05;101000.31;6129520;23;20030;-77
2023/04/14 05:28:01;;;;;;;7.60;4.68;;;;;;;2.05;94.89;101001.06;6128253;23;20014;-77
2023/04/14 05:30:28;;;;;;;7.10;5.07;;;;;;;2.12;95.53;101002.94;6129636;23;20018;-75
2023/04/14 05:32:55;;;;;;;8.45;5.72;;;;;;;2.18;95.41;101001.44;6129337;23;20019;-75
2023/04/14 05:35:24;;;;;;;7.55;4.93;;;;;;;2.24;95.64;101000.69;6129450;23;20027;-75
2023/04/14 05:37:50;;;;;;;14.07;4.95;;;;;;;2.31;95.55;101000.72;6103561;23;20022;-76
2023/04/14 05:40:18;;;;;;;7.97;5.28;;;;;;;2.40;95.74;101004.84;6128573;23;20029;-75
2023/04/14 05:42:45;;;;;;;8.95;5.10;;;;;;;2.73;96.69;101007.03;6128614;23;20023;-76
2023/04/14 05:45:11;;;;;;;10.25;6.47;;;;;;;4.99;94.86;101008.56;6128987;23;20030;-75
2023/04/14 05:47:38;;;;;;;13.00;7.45;;;;;;;7.51;82.96;101014.34;6103449;23;20023;-76
2023/04/14 05:50:06;;;;;;;11.80;7.18;;;;;;;9.28;73.71;101012.56;6102876;23;20045;-77
2023/04/14 05:52:33;;;;;;;12.07;6.60;;;;;;;10.60;66.95;101017.19;6129167;23;20054;-76
2023/04/14 05:54:59;;;;;;;8.65;5.65;;;;;;;11.50;62.00;101012.84;6127741;23;20074;-77
2023/04/14 05:57:26;;;;;;;6.97;5.43;;;;;;;12.11;59.34;101011.22;6128691;23;20096;-76
2023/04/14 05:59:52;;;;;;;8.60;5.78;;;;;;;12.59;56.71;101011.53;6102846;23;20094;-75
2023/04/14 06:02:20;;;;;;;11.77;5.45;;;;;;;12.77;55.45;101013.47;6128744;23;20021;-76
2023/04/14 06:04:47;;;;;;;6.95;5.10;;;;;;;13.06;54.64;101013.69;6128801;23;20025;-75
2023/04/14 06:07:14;;;;;;;14.30;5.55;;;;;;;13.24;54.57;101012.91;6128196;23;20043;-76
2023/04/14 06:09:45;;;;;;;7.40;5.45;;;;;;;13.20;53.27;101010.41;6102560;23;20441;-75
2023/04/14 06:12:12;;;;;;;12.57;5.55;;;;;;;12.96;53.62;101001.53;6128025;23;20024;-76
2023/04/14 06:14:39;;;;;;;6.85;4.82;;;;;;;12.65;54.15;101004.41;6128643;23;20135;-76
2023/04/14 06:17:06;;;;;;;16.65;5.80;;;;;;;12.32;54.69;101006.97;6128183;23;20018;-77
2023/04/14 06:19:32;;;;;;;7.20;5.38;;;;;;;12.06;55.46;101001.13;6128940;23;20018;-75
2023/04/14 06:21:59;;;;;;;8.05;4.88;;;;;;;11.69;57.01;100997.63;6128028;23;20021;-75
2023/04/14 06:24:26;;;;;;;12.30;4.95;;;;;;;11.35;58.78;101001.22;6128627;23;20018;-76
2023/04/14 06:26:52;;;;;;;12.88;5.45;;;;;;;11.20;58.37;101003.66;6130326;23;20425;-75
2023/04/14 06:29:19;;;;;;;10.27;5.05;;;;;;;10.82;60.33;101003.13;6130594;23;20014;-76
2023/04/14 06:31:45;;;;;;;8.68;4.80;;;;;;;10.55;61.40;101004.44;6131078;23;20392;-75
2023/04/14 06:34:12;;;;;;;9.23;4.88;;;;;;;10.03;62.31;101002.31;6130454;23;20019;-75
2023/04/14 06:36:38;;;;;;;9.68;4.80;;;;;;;9.60;64.88;100998.31;6130830;23;20014;-76
2023/04/14 06:39:05;;;;;;;8.55;4.75;;;;;;;9.34;66.53;101008.22;6129879;23;20070;-75
2023/04/14 06:41:32;;;;;;;14.77;4.80;;;;;;;9.11;67.05;100997.13;6130815;23;20029;-75
2023/04/14 06:44:02;;;;;;;6.95;4.25;;;;;;;9.00;66.96;101000.84;6104591;23;20094;-77
2023/04/14 06:46:29;;;;;;;12.20;4.72;;;;;;;8.78;68.89;100993.88;6130955;23;20058;-75
2023/04/14 06:48:56;;;;;;;11.63;4.70;;;;;;;8.68;68.96;100995.66;6130535;23;20025;-76
2023/04/14 06:51:22;;;;;;;7.57;4.35;;;;;;;8.55;70.00;100990.28;6104578;23;20015;-77
2023/04/14 06:53:49;;;;;;;6.50;4.25;;;;;;;8.52;70.76;100996.44;6130311;23;20042;-77
2023/04/14 06:56:15;;;;;;;14.60;4.97;;;;;;;8.45;71.24;100999.25;6130613;23;20443;-76
2023/04/14 06:58:42;;;;;;;9.10;4.20;;;;;;;8.38;71.59;100986.19;6130623;23;20015;-75
2023/04/14 07:01:08;;;;;;;10.55;4.35;;;;;;;8.55;71.84;100992.94;6130422;23;20023;-76
2023/04/14 07:03:36;;;;;;;9.68;4.30;;;;;;;8.57;72.24;100985.31;6130751;23;20413;-76
2023/04/14 07:06:04;;;;;;;7.75;4.32;;;;;;;8.66;72.00;100985.44;6130450;23;20019;-76
2023/04/14 07:08:31;;;;;;;14.50;4.45;;;;;;;8.67;72.38;100996.81;6130325;23;20464;-76
2023/04/14 07:10:59;;;;;;;10.18;3.83;;;;;;;8.63;72.96;100990.84;6130380;23;20025;-75
2023/04/14 07:13:26;;;;;;;9.10;4.07;;;;;;;8.67;73.31;100983.53;6130888;23;20046;-75
2023/04/14 07:15:53;;;;;;;4.93;3.50;;;;;;;8.85;73.57;100975.81;6131212;23;20042;-77
2023/04/14 07:18:20;;;;;;;6.75;3.65;;;;;;;9.10;72.34;100987.69;6130274;23;20014;-77
2023/04/14 07:20:56;;;;;;;6.63;2.63;;;;;;;9.14;71.84;100978.44;6130725;23;20113;-75
2023/04/14 07:23:23;;;;;;;5.50;2.88;;;;;;;9.26;70.88;100982.28;6130229;23;20022;-76
2023/04/14 07:25:51;;;;;;;9.32;3.40;;;;;;;9.26;71.68;100969.72;6104732;23;20030;-76
2023/04/14 07:28:19;;;;;;;7.07;3.20;;;;;;;9.40;71.21;100981.13;6130570;23;20021;-76
2023/04/14 07:30:45;;;;;;;6.85;2.60;;;;;;;9.42;70.76;100976.13;6130937;23;20026;-77
2023/04/14 07:33:12;;;;;;;5.22;2.85;;;;;;;9.48;70.63;100977.81;6130214;23;20022;-77
2023/04/14 07:35:39;;;;;;;11.07;3.00;;;;;;;9.52;70.63;100975.81;6130426;23;20444;-77
2023/04/14 07:38:20;;;;;;;9.45;2.90;;;;;;;9.62;70.42;100981.94;6129683;23;20019;-78
2023/04/14 07:40:46;;;;;;;4.78;2.75;;;;;;;9.71;70.39;100976.75;6130636;23;20108;-78
2023/04/14 07:43:13;;;;;;;6.32;2.30;;;;;;;9.78;69.22;100975.78;6104171;23;20019;-77
2023/04/14 07:45:39;;;;;;;7.60;2.40;;;;;;;9.79;69.88;100971.94;6130893;23;20053;-77
2023/04/14 07:48:06;;;;;;;4.90;2.20;;;;;;;9.99;69.26;100972.47;6130563;23;20018;-77
2023/04/14 07:50:32;;;;;;;6.65;2.47;;;;;;;10.18;68.28;100968.78;6130490;23;20098;-77
2023/04/14 07:52:59;;;;;;;5.88;2.55;;;;;;;10.30;67.73;100969.94;6128321;23;20480;-77
2023/04/14 07:55:25;;;;;;;4.82;2.25;;;;;;;10.45;66.76;100968.28;6130520;23;20413;-77
2023/04/14 07:57:53;;;;;;;3.30;2.22;;;;;;;10.51;66.52;100973.78;6129955;23;20476;-78
2023/04/14 08:00:20;;;;;;;6.85;2.08;;;;;;;10.60;66.54;100969.28;6130041;23;20439;-78
2023/04/14 08:02:47;;;;;;;4.55;2.13;;;;;;;10.81;65.47;100973.09;6130590;23;20029;-77
2023/04/14 08:05:13;;;;;;;6.68;2.85;;;;;;;10.91;64.78;100963.97;6130168;23;20014;-78
2023/04/14 08:07:40;;;;;;;7.10;2.75;;;;;;;10.99;65.45;100973.22;6103829;23;20014;-78
2023/04/14 08:10:07;;;;;;;6.30;2.47;;;;;;;11.09;64.76;100968.69;6130153;23;20055;-78
2023/04/14 08:12:33;;;;;;;4.95;2.35;;;;;;;11.26;63.90;100969.19;6130496;23;20449;-78
2023/04/14 08:15:00;;;;;;;7.95;2.75;;;;;;;11.41;63.20;100964.81;6130062;23;20041;-77
2023/04/14 08:17:26;;;;;;;7.35;2.70;;;;;;;11.55;63.88;100974.19;6130647;23;20019;-78
2023/04/14 08:19:53;;;;;;;7.35;2.88;;;;;;;11.72;62.63;100975.41;6129858;23;20022;-78
2023/04/14 08:22:20;;;;;;;7.03;2.42;;;;;;;11.87;60.67;100975.63;6129916;23;20030;-78
2023/04/14 08:24:47;;;;;;;6.05;2.47;;;;;;;11.93;61.42;100984.53;6130776;23;20022;-78
2023/04/14 08:27:13;;;;;;;6.43;2.40;;;;;;;11.99;60.07;100970.16;6130352;23;20033;-77
2023/04/14 08:29:40;;;;;;;3.90;2.00;;;;;;;12.08;60.38;100979.34;6130182;23;20487;-78
2023/04/14 08:32:06;;;;;;;6.22;1.90;;;;;;;12.35;60.13;100977.44;6130118;23;20030;-77
2023/04/14 08:34:33;;;;;;;7.50;1.77;;;;;;;12.48;58.20;100977.28;6129709;23;20411;-78
2023/04/14 08:37:00;;;;;;;8.02;1.50;;;;;;;12.49;58.65;100975.34;6130056;23;20472;-78
2023/04/14 08:39:27;;;;;;;4.47;1.77;;;;;;;12.50;58.10;100971.50;6130098;23;20489;-79
2023/04/14 08:41:55;;;;;;;3.42;1.70;;;;;;;12.68;56.34;100977.56;6130238;23;20090;-78
2023/04/14 08:44:24;;;;;;;5.43;1.60;;;;;;;12.76;55.71;100974.59;6130328;23;20452;-78
2023/04/14 08:46:54;;;;;;;3.72;1.45;;;;;;;12.76;55.13;100974.59;6129618;23;20078;-76
2023/04/14 08:49:45;;;;;;;3.17;1.80;;;;;;;12.85;55.58;100964.59;6129466;23;20015;-78
2023/04/14 08:52:12;;;;;;;6.35;1.60;;;;;;;12.98;54.89;100969.78;6129762;23;20078;-77
2023/04/14 08:54:39;;;;;;;8.10;2.10;;;;;;;12.98;55.14;100969.78;6129901;23;20015;-79
2023/04/14 08:57:08;;;;;;;1.88;1.40;;;;;;;13.18;55.07;100972.72;6098391;23;20472;-78
2023/04/14 08:59:35;;;;;;;3.90;1.98;;;;;;;13.22;53.88;100975.19;6101016;23;20018;-78
2023/04/14 09:02:06;;;;;;;3.00;1.38;;;;;;;13.40;53.97;100971.72;6099156;23;20515;-77
2023/04/14 09:04:34;;;;;;;3.38;1.40;;;;;;;13.57;54.20;100968.22;6100445;23;20075;-79
2023/04/14 09:07:04;;;;;;;4.50;1.50;;;;;;;13.61;53.27;100958.06;6100547;23;20022;-87
2023/04/14 09:09:30;;;;;;;4.70;1.52;;;;;;;13.69;52.12;100964.56;6100944;23;20033;-78
2023/04/14 09:11:57;;;;;;;1.80;1.40;;;;;;;13.64;51.59;100967.13;6099892;23;20091;-77
2023/04/14 09:14:25;;;;;;;2.75;1.60;;;;;;;13.63;51.84;100954.94;6099030;23;20461;-77
2023/04/14 09:16:52;;;;;;;4.85;1.92;;;;;;;13.66;51.67;100946.00;6101026;23;20071;-77
2023/04/14 09:19:20;;;;;;;6.53;1.63;;;;;;;13.69;51.25;100951.19;6097836;23;20019;-76
2023/04/14 09:21:47;;;;;;;4.95;1.52;;;;;;;13.73;51.57;100953.69;6100176;23;20428;-76
2023/04/14 09:24:27;;;;;;;3.90;1.50;;;;;;;13.79;51.73;100951.88;6100454;23;20038;-78
2023/04/14 09:26:57;;;;;;;7.88;1.67;;;;;;;13.89;51.34;100947.22;6100298;23;20022;-78
2023/04/14 09:29:24;;;;;;;3.80;1.73;;;;;;;13.88;51.24;100957.19;6100668;23;20086;-79
2023/04/14 09:31:51;;;;;;;1.98;1.35;;;;;;;13.86;52.13;100953.47;6100916;23;20054;-79
2023/04/14 09:34:19;;;;;;;4.05;1.63;;;;;;;14.02;50.91;100945.03;6099664;23;20049;-79
2023/04/14 09:37:03;;;;;;;7.00;1.70;;;;;;;14.16;51.28;100946.25;6098657;23;20019;-79
2023/04/14 09:39:31;;;;;;;5.72;1.88;;;;;;;14.24;49.32;100945.47;6098927;23;20078;-79
2023/04/14 09:41:58;;;;;;;5.05;2.00;;;;;;;14.22;49.93;100941.75;6100264;23;20373;-79
2023/04/14 09:44:25;;;;;;;2.70;1.60;;;;;;;14.33;49.23;100942.72;6100443;23;20078;-79
2023/04/14 09:47:00;;;;;;;3.03;1.48;;;;;;;14.39;49.35;100950.09;6100458;23;20468;-79
2023/04/14 09:49:28;;;;;;;9.10;1.58;;;;;;;14.34;49.14;100941.50;6100776;23;20025;-79
2023/04/14 09:52:03;;;;;;;2.33;1.52;;;;;;;14.63;49.83;100940.06;6100648;23;20075;-77
2023/04/14 09:54:30;;;;;;;3.28;1.95;;;;;;;14.68;49.00;100937.47;6100317;23;20019;-77
2023/04/14 09:56:56;;;;;;;3.85;1.63;;;;;;;14.73;47.37;100936.09;6105719;23;20018;-78
2023/04/14 09:59:37;;;;;;;3.72;1.60;;;;;;;14.77;49.22;100941.28;6130747;23;20015;-78
2023/04/14 10:02:06;;;;;;;4.00;1.80;;;;;;;14.87;47.79;100929.22;6104133;23;20069;-77
2023/04/14 10:04:33;;;;;;;8.32;2.08;;;;;;;15.09;47.63;100934.19;6131180;23;20026;-78
2023/04/14 10:07:00;;;;;;;5.63;1.70;;;;;;;15.15;47.88;100929.66;6130763;23;20014;-78
2023/04/14 10:09:28;;;;;;;6.43;1.70;;;;;;;15.28;47.01;100927.38;6130902;23;20436;-78
2023/04/14 10:12:13;;;;;;;4.93;1.80;;;;;;;15.45;48.08;100924.94;6104556;23;20023;-76
2023/04/14 10:14:41;;;;;;;5.60;1.77;;;;;;;15.62;47.29;100923.22;6104687;23;20042;-77
2023/04/14 10:17:08;;;;;;;3.55;1.63;;;;;;;15.36;45.62;100923.13;6130714;23;20078;-81
2023/04/14 10:19:36;;;;;;;6.68;1.90;;;;;;;15.18;47.38;100918.00;6131244;23;20435;-78
2023/04/14 10:22:04;;;;;;;3.95;1.52;;;;;;;15.39;47.08;100919.50;6104576;23;20022;-81
2023/04/14 10:24:31;;;;;;;6.90;1.80;;;;;;;15.45;46.08;100916.88;6131096;23;20014;-79
2023/04/14 10:27:01;;;;;;;3.92;1.83;;;;;;;15.32;46.43;100907.22;6130480;23;20412;-79
2023/04/14 10:29:29;;;;;;;6.20;1.92;;;;;;;15.55;46.88;100908.25;6080944;23;20023;-78
2023/04/14 10:31:59;;;;;;;5.88;1.75;;;;;;;15.78;46.46;100911.22;6130316;23;20101;-80
2023/04/14 10:34:29;;;;;;;5.78;2.10;;;;;;;15.68;45.81;100915.97;6130444;23;20018;-78
2023/04/14 10:37:11;;;;;;;3.25;1.83;;;;;;;15.74;46.91;100900.69;6131048;23;20021;-79
2023/04/14 10:39:38;;;;;;;4.93;1.80;;;;;;;15.80;46.55;100908.78;6104840;23;20015;-79
2023/04/14 10:42:05;;;;;;;8.40;2.15;;;;;;;15.88;45.38;100912.56;6130475;23;20098;-79
2023/04/14 10:44:33;;;;;;;4.00;1.98;;;;;;;15.81;45.73;100899.53;6104732;23;20053;-79
2023/04/14 10:47:06;;;;;;;7.65;2.20;;;;;;;15.80;46.65;100906.84;6129676;23;20014;-79
2023/04/14 10:49:39;;;;;;;5.30;2.05;;;;;;;16.12;46.10;100904.97;6131003;23;20579;-77
2023/04/14 10:52:15;;;;;;;2.72;2.20;;;;;;;16.01;45.93;100900.22;6131066;23;20413;-77
2023/04/14 10:54:52;;;;;;;3.45;1.77;;;;;;;16.14;45.14;100899.88;6104653;23;20025;-79
2023/04/14 10:57:23;;;;;;;3.70;2.20;;;;;;;16.12;44.20;100901.56;6130308;23;20022;-77
2023/04/14 10:59:57;;;;;;;4.60;2.00;;;;;;;15.67;45.23;100911.81;6104581;23;20026;-77
2023/04/14 11:02:33;;;;;;;9.77;2.63;;;;;;;15.22;46.62;100899.75;6105233;23;20062;-75
2023/04/14 11:05:10;;;;;;;4.35;1.98;;;;;;;15.16;45.73;100896.28;6130430;23;20014;-76
2023/04/14 11:07:43;;;;;;;6.18;2.17;;;;;;;15.10;46.23;100890.84;6130917;23;20021;-77
2023/04/14 11:10:15;;;;;;;3.22;2.20;;;;;;;15.17;46.19;100892.41;6129842;23;20059;-77
2023/04/14 11:12:43;;;;;;;2.65;1.90;;;;;;;15.50;46.02;100890.13;6130700;23;20029;-77
2023/04/14 11:15:10;;;;;;;2.65;1.85;;;;;;;15.57;44.67;100884.41;6129437;23;20732;-77
2023/04/14 11:17:38;;;;;;;4.03;1.90;;;;;;;15.40;45.52;100890.72;6130795;23;20038;-77
2023/04/14 11:20:16;;;;;;;4.50;2.20;;;;;;;15.42;45.12;100886.38;6104669;23;20069;-77
2023/04/14 11:22:44;;;;;;;4.63;2.22;;;;;;;15.76;45.82;100882.16;6130635;23;20030;-77
2023/04/14 11:25:13;;;;;;;5.97;1.77;;;;;;;16.13;44.46;100889.59;6130303;23;20432;-77
2023/04/14 11:27:40;;;;;;;3.50;1.60;;;;;;;16.27;43.88;100889.50;6104353;23;20461;-77
2023/04/14 11:30:16;;;;;;;4.40;1.80;;;;;;;16.09;43.70;100887.13;6129572;23;20449;-77
2023/04/14 11:32:46;;;;;;;2.53;1.60;;;;;;;15.67;43.92;100883.03;6130690;23;20018;-77
2023/04/14 11:35:14;;;;;;;6.78;1.77;;;;;;;15.90;43.22;100877.91;6129922;23;20123;-77
2023/04/14 11:37:42;;;;;;;5.05;1.90;;;;;;;16.02;43.30;100884.84;6130564;23;20334;-77